createdAt,value
2023-01-11T00:01:09.583Z,55.60
2023-01-11T00:03:38.260Z,58.40
2023-01-11T00:06:08.068Z,57.80
2023-01-11T00:08:36.432Z,52.20
2023-01-11T00:11:04.851Z,57.50
2023-01-11T00:13:33.400Z,54.80
2023-01-11T00:16:06.959Z,54.10
2023-01-11T00:18:36.377Z,52.60
2023-01-11T00:21:05.822Z,56.80
2023-01-11T00:23:35.549Z,55.40
2023-01-11T00:26:10.096Z,58.50
2023-01-11T00:28:38.286Z,51.30
2023-01-11T00:31:06.436Z,56.60
2023-01-11T00:33:35.128Z,55.70
2023-01-11T00:36:03.343Z,56.50
2023-01-11T00:38:49.783Z,55.10
2023-01-11T00:41:37.591Z,59.40
2023-01-11T00:44:24.814Z,58.50
2023-01-11T00:47:11.314Z,59.40
2023-01-11T00:49:39.455Z,56.20
2023-01-11T00:52:09.825Z,60.10
2023-01-11T00:54:39.372Z,58.80
2023-01-11T00:57:08.903Z,56.30
2023-01-11T00:59:39.654Z,54.70
2023-01-11T01:02:09.814Z,53.80
2023-01-11T01:04:38.797Z,55.80
2023-01-11T01:07:07.254Z,55.40
2023-01-11T01:09:35.436Z,57.00
2023-01-11T01:12:03.903Z,53.40
2023-01-11T01:14:33.536Z,54.80
2023-01-11T01:17:03.684Z,60.30
2023-01-11T01:19:32.262Z,60.30
2023-01-11T01:22:00.551Z,59.90
2023-01-11T01:24:30.827Z,55.80
2023-01-11T01:26:59.089Z,56.60
2023-01-11T01:29:27.355Z,61.90
2023-01-11T01:31:55.472Z,58.30
2023-01-11T01:34:23.527Z,58.60
2023-01-11T01:36:51.664Z,60.20
2023-01-11T01:39:20.101Z,62.50
2023-01-11T01:41:48.480Z,59.60
2023-01-11T01:44:54.182Z,61.00
2023-01-11T01:47:25.072Z,55.60
2023-01-11T01:49:53.475Z,64.00
2023-01-11T01:52:29.062Z,57.70
2023-01-11T01:55:02.910Z,62.00
2023-01-11T01:57:34.845Z,58.20
2023-01-11T02:00:06.876Z,62.60
2023-01-11T02:02:37.422Z,61.80
2023-01-11T02:05:06.474Z,61.40
2023-01-11T02:07:37.534Z,63.10
2023-01-11T02:10:16.531Z,59.00
2023-01-11T02:12:56.564Z,60.20
2023-01-11T02:15:25.360Z,62.10
2023-01-11T02:17:53.580Z,64.30
2023-01-11T02:21:23.382Z,62.30
2023-01-11T02:24:06.298Z,56.60
2023-01-11T02:26:34.343Z,59.00
2023-01-11T02:29:33.311Z,55.80
2023-01-11T02:32:37.551Z,65.80
2023-01-11T02:35:20.653Z,63.40
2023-01-11T02:38:01.713Z,57.30
2023-01-11T02:40:40.561Z,56.60
2023-01-11T02:43:46.293Z,61.80
2023-01-11T02:46:22.541Z,63.10
2023-01-11T02:48:50.592Z,65.60
2023-01-11T02:51:53.102Z,63.30
2023-01-11T02:54:24.187Z,58.00
2023-01-11T02:56:57.132Z,69.50
2023-01-11T02:59:31.195Z,67.30
2023-01-11T03:01:59.785Z,61.20
2023-01-11T03:04:29.974Z,57.60
2023-01-11T03:07:14.592Z,64.80
2023-01-11T03:09:45.661Z,58.30
2023-01-11T03:12:55.034Z,58.50
2023-01-11T03:15:50.978Z,56.00
2023-01-11T03:18:50.509Z,64.70
2023-01-11T03:21:36.877Z,57.70
2023-01-11T03:24:20.527Z,55.50
2023-01-11T03:27:09.400Z,60.50
2023-01-11T03:29:40.477Z,64.20
2023-01-11T03:32:32.963Z,68.00
2023-01-11T03:35:11.846Z,63.60
2023-01-11T03:37:45.203Z,63.30
2023-01-11T03:40:28.235Z,71.60
2023-01-11T03:43:13.403Z,64.80
2023-01-11T03:45:56.764Z,70.60
2023-01-11T03:48:33.800Z,71.20
2023-01-11T03:51:05.647Z,65.50
2023-01-11T03:53:36.927Z,58.70
2023-01-11T03:56:10.181Z,60.20
2023-01-11T04:01:07.765Z,64.40
2023-01-11T04:03:35.865Z,60.10
2023-01-11T04:06:04.419Z,65.30
2023-01-11T04:08:32.523Z,70.70
2023-01-11T04:11:00.698Z,66.80
2023-01-11T04:13:28.910Z,73.30
2023-01-11T04:15:57.126Z,71.90
2023-01-11T04:18:25.573Z,67.00
2023-01-11T04:20:53.651Z,61.70
2023-01-11T04:23:21.825Z,64.10
2023-01-11T04:25:49.962Z,66.40
2023-01-11T04:28:18.108Z,63.40
2023-01-11T04:30:46.183Z,61.40
2023-01-11T04:33:14.612Z,62.00
2023-01-11T04:35:43.971Z,61.90
2023-01-11T04:38:12.209Z,65.50
2023-01-11T04:40:40.446Z,61.10
2023-01-11T04:43:09.084Z,63.10
2023-01-11T04:45:37.226Z,71.70
2023-01-11T04:48:05.724Z,69.00
2023-01-11T04:50:33.988Z,64.80
2023-01-11T04:53:02.091Z,60.30
2023-01-11T04:55:30.166Z,66.90
2023-01-11T04:57:58.487Z,60.60
2023-01-11T05:00:26.563Z,58.60
2023-01-11T05:02:54.792Z,62.40
2023-01-11T05:05:23.098Z,62.20
2023-01-11T05:07:51.310Z,66.90
2023-01-11T05:10:20.987Z,73.10
2023-01-11T05:12:49.428Z,73.20
2023-01-11T05:15:17.617Z,60.70
2023-01-11T05:17:45.823Z,71.50
2023-01-11T05:20:14.013Z,77.70
2023-01-11T05:22:42.307Z,61.00
2023-01-11T05:25:10.458Z,58.40
2023-01-11T05:27:38.581Z,59.20
2023-01-11T05:30:07.629Z,57.10
2023-01-11T05:32:35.990Z,57.60
2023-01-11T05:35:04.375Z,53.10
2023-01-11T05:37:32.840Z,50.20
2023-01-11T05:40:01.108Z,45.90
2023-01-11T05:42:29.290Z,45.00
2023-01-11T05:45:15.928Z,53.30
2023-01-11T05:47:44.078Z,50.80
2023-01-11T05:50:12.218Z,43.80
2023-01-11T05:52:40.338Z,44.10
2023-01-11T05:55:08.892Z,44.40
2023-01-11T05:57:37.068Z,43.20
2023-01-11T06:00:05.664Z,49.70
2023-01-11T06:02:35.764Z,47.10
2023-01-11T06:05:04.914Z,46.80
2023-01-11T06:07:33.072Z,43.80
2023-01-11T06:10:01.926Z,46.00
2023-01-11T06:12:30.215Z,47.90
2023-01-11T06:14:58.699Z,44.50
2023-01-11T06:17:26.990Z,43.80
2023-01-11T06:19:55.128Z,44.70
2023-01-11T06:22:23.370Z,38.60
2023-01-11T06:24:51.517Z,43.90
2023-01-11T06:27:20.115Z,50.20
2023-01-11T06:29:48.748Z,43.10
2023-01-11T06:32:17.015Z,43.70
2023-01-11T06:34:45.186Z,43.20
2023-01-11T06:37:13.649Z,43.20
2023-01-11T06:39:42.100Z,44.60
2023-01-11T06:42:10.432Z,43.20
2023-01-11T06:44:38.598Z,46.80
2023-01-11T06:47:06.848Z,46.80
2023-01-11T06:49:35.057Z,46.00
2023-01-11T06:52:03.266Z,48.00
2023-01-11T06:54:31.597Z,45.20
2023-01-11T06:56:59.767Z,40.80
2023-01-11T06:59:27.984Z,46.90
2023-01-11T07:01:56.179Z,48.20
2023-01-11T07:04:24.444Z,45.90
2023-01-11T07:06:54.675Z,45.50
2023-01-11T07:09:22.882Z,45.00
2023-01-11T07:11:51.832Z,51.30
2023-01-11T07:14:21.157Z,44.20
2023-01-11T07:16:49.362Z,47.20
2023-01-11T07:19:18.473Z,47.50
2023-01-11T07:21:46.694Z,45.30
2023-01-11T07:24:14.892Z,51.30
2023-01-11T07:26:43.577Z,40.10
2023-01-11T07:29:11.934Z,40.00
2023-01-11T07:31:40.226Z,42.10
2023-01-11T07:34:09.574Z,41.70
2023-01-11T07:36:39.778Z,42.20
2023-01-11T07:39:08.328Z,40.80
2023-01-11T07:41:55.056Z,41.80
2023-01-11T07:44:24.243Z,39.30
2023-01-11T07:46:52.593Z,43.50
2023-01-11T07:49:20.875Z,45.70
2023-01-11T07:51:49.069Z,44.00
2023-01-11T07:54:17.851Z,39.60
2023-01-11T07:56:46.353Z,40.00
2023-01-11T07:59:14.677Z,39.60
2023-01-11T08:01:43.073Z,38.80
2023-01-11T08:04:13.404Z,38.20
2023-01-11T08:06:42.173Z,36.40
2023-01-11T08:09:10.593Z,34.80
2023-01-11T08:12:02.200Z,32.50
2023-01-11T08:14:39.781Z,32.10
2023-01-11T08:17:15.860Z,32.50
2023-01-11T08:19:44.237Z,32.30
2023-01-11T08:22:13.004Z,28.90
2023-01-11T08:24:41.140Z,32.00
2023-01-11T08:27:09.488Z,28.50
2023-01-11T08:29:38.111Z,31.60
2023-01-11T08:32:06.494Z,27.20
2023-01-11T08:34:35.012Z,29.60
2023-01-11T08:37:03.442Z,33.10
2023-01-11T08:39:32.623Z,35.00
2023-01-11T08:42:03.140Z,30.60
2023-01-11T08:44:34.940Z,31.30
2023-01-11T08:47:03.814Z,27.20
2023-01-11T08:49:32.243Z,33.00
2023-01-11T08:52:00.468Z,32.90
2023-01-11T08:54:28.817Z,34.60
2023-01-11T08:56:57.061Z,28.40
2023-01-11T08:59:25.262Z,24.60
2023-01-11T09:01:53.501Z,24.80
2023-01-11T09:04:25.762Z,25.60
2023-01-11T09:06:54.410Z,26.40
2023-01-11T09:09:22.689Z,21.40
2023-01-11T09:11:54.623Z,24.00
2023-01-11T09:14:25.043Z,25.70
2023-01-11T09:16:54.489Z,23.70
2023-01-11T09:19:23.611Z,21.60
2023-01-11T09:21:52.215Z,21.30
2023-01-11T09:24:20.390Z,19.70
2023-01-11T09:26:48.639Z,23.50
2023-01-11T09:29:17.214Z,20.70
2023-01-11T09:31:45.586Z,21.60
2023-01-11T09:34:13.998Z,19.00
2023-01-11T09:36:43.245Z,21.00
2023-01-11T09:39:14.668Z,22.20
2023-01-11T09:42:20.834Z,17.90
2023-01-11T09:44:56.828Z,17.60
2023-01-11T09:48:03.873Z,19.40
2023-01-11T09:50:40.064Z,21.90
2023-01-11T09:53:18.426Z,18.10
2023-01-11T09:55:50.809Z,19.20
2023-01-11T09:58:43.258Z,13.80
2023-01-11T10:01:28.279Z,13.50
2023-01-11T10:04:16.195Z,18.30
2023-01-11T10:07:12.614Z,15.10
2023-01-11T10:22:02.250Z,18.20
2023-01-11T10:24:42.740Z,15.40
2023-01-11T10:27:36.164Z,14.50
2023-01-11T10:30:52.299Z,17.30
2023-01-11T10:34:00.917Z,15.10
2023-01-11T10:36:53.318Z,18.20
2023-01-11T10:39:55.718Z,18.70
2023-01-11T10:42:28.966Z,12.60
2023-01-11T10:45:04.398Z,17.20
2023-01-11T10:47:41.703Z,12.20
2023-01-11T10:50:33.499Z,12.80
2023-01-11T10:53:12.971Z,14.10
2023-01-11T10:56:09.159Z,11.70
2023-01-11T10:58:55.064Z,11.60
2023-01-11T11:01:32.693Z,11.90
2023-01-11T11:04:25.194Z,14.50
2023-01-11T11:07:19.491Z,16.30
2023-01-11T11:10:05.561Z,13.60
2023-01-11T11:12:41.408Z,15.30
2023-01-11T11:15:47.280Z,10.50
2023-01-11T11:18:15.514Z,10.90
2023-01-11T11:20:44.387Z,11.00
2023-01-11T11:23:19.383Z,13.40
2023-01-11T11:25:57.820Z,13.30
2023-01-11T11:28:30.070Z,13.40
2023-01-11T11:31:07.619Z,12.00
2023-01-11T11:33:38.745Z,11.30
2023-01-11T11:36:12.221Z,14.40
2023-01-11T11:39:10.821Z,12.90
2023-01-11T11:41:48.471Z,12.70
2023-01-11T11:44:20.769Z,16.20
2023-01-11T11:47:06.506Z,15.10
2023-01-11T11:49:37.107Z,12.80
2023-01-11T11:52:07.264Z,13.30
2023-01-11T11:54:57.624Z,15.10
2023-01-11T11:57:29.966Z,12.70
2023-01-11T12:00:27.602Z,12.80
2023-01-11T12:03:21.730Z,12.80
2023-01-11T12:05:55.855Z,10.40
2023-01-11T12:08:26.057Z,13.50
2023-01-11T12:10:57.791Z,14.50
2023-01-11T12:13:35.634Z,12.10
2023-01-11T12:16:21.082Z,13.40
2023-01-11T12:18:49.665Z,11.40
2023-01-11T12:21:23.867Z,14.80
2023-01-11T12:24:13.586Z,14.20
2023-01-11T12:26:52.333Z,11.60
2023-01-11T12:29:29.769Z,15.90
2023-01-11T12:32:23.388Z,15.70
2023-01-11T12:35:16.076Z,19.50
2023-01-11T12:37:44.450Z,16.30
2023-01-11T12:40:29.268Z,18.90
2023-01-11T12:42:57.398Z,19.00
2023-01-11T12:46:06.013Z,16.80
2023-01-11T12:48:37.106Z,15.70
2023-01-11T12:51:31.150Z,18.80
2023-01-11T12:54:07.279Z,15.30
2023-01-11T12:56:35.430Z,17.10
2023-01-11T12:59:06.219Z,16.10
2023-01-11T13:01:43.350Z,17.10
2023-01-11T13:04:33.065Z,14.50
2023-01-11T13:07:10.220Z,17.80
2023-01-11T13:09:50.128Z,17.40
2023-01-11T13:12:24.161Z,15.00
2023-01-11T13:15:16.234Z,14.70
2023-01-11T13:18:02.751Z,15.20
2023-01-11T13:21:01.360Z,12.20
2023-01-11T13:23:36.361Z,14.80
2023-01-11T13:26:35.989Z,14.00
2023-01-11T13:29:15.428Z,14.30
2023-01-11T13:31:46.347Z,16.30
2023-01-11T13:34:23.750Z,13.70
2023-01-11T13:36:55.493Z,13.10
2023-01-11T13:39:35.174Z,16.00
2023-01-11T13:42:12.049Z,15.50
2023-01-11T13:44:55.322Z,10.30
2023-01-11T13:47:30.826Z,13.00
2023-01-11T13:50:17.718Z,13.20
2023-01-11T13:53:17.928Z,12.70
2023-01-11T13:56:09.988Z,12.30
2023-01-11T13:59:03.760Z,12.20
2023-01-11T14:01:41.081Z,12.70
2023-01-11T14:04:31.687Z,13.60
2023-01-11T14:07:13.780Z,13.10
2023-01-11T14:09:53.947Z,16.10
2023-01-11T14:12:27.780Z,14.00
2023-01-11T14:15:32.533Z,14.50
2023-01-11T14:18:23.886Z,15.70
2023-01-11T14:21:01.969Z,17.10
2023-01-11T14:23:45.001Z,13.60
2023-01-11T14:26:19.311Z,17.50
2023-01-11T14:28:50.420Z,18.30
2023-01-11T14:31:30.676Z,18.10
2023-01-11T14:34:38.804Z,16.30
2023-01-11T14:37:09.787Z,17.90
2023-01-11T14:39:48.824Z,13.90
2023-01-11T14:42:53.970Z,21.50
2023-01-11T14:45:49.598Z,19.50
2023-01-11T14:48:30.161Z,20.10
2023-01-11T14:51:32.599Z,20.20
2023-01-11T14:54:14.388Z,21.80
2023-01-11T14:56:42.515Z,22.10
2023-01-11T14:59:33.542Z,21.50
2023-01-11T15:02:04.768Z,21.20
2023-01-11T15:04:48.906Z,21.60
2023-01-11T15:07:24.937Z,22.70
2023-01-11T15:09:53.830Z,24.70
2023-01-11T15:12:41.316Z,22.60
2023-01-11T15:15:21.341Z,27.40
2023-01-11T15:18:15.570Z,25.00
2023-01-11T15:20:55.258Z,21.90
2023-01-11T15:23:24.721Z,23.40
2023-01-11T15:26:03.579Z,22.80
2023-01-11T15:29:10.334Z,26.20
2023-01-11T15:32:03.191Z,25.80
2023-01-11T15:34:31.235Z,24.40
2023-01-11T15:37:08.293Z,27.90
2023-01-11T15:39:58.247Z,27.80
2023-01-11T15:42:51.980Z,27.30
2023-01-11T15:45:35.143Z,26.60
2023-01-11T15:48:32.146Z,34.20
2023-01-11T15:51:16.044Z,29.30
2023-01-11T15:54:00.575Z,28.00
2023-01-11T15:56:47.212Z,31.80
2023-01-11T15:59:34.215Z,34.00
2023-01-11T16:02:14.649Z,39.00
2023-01-11T16:04:51.542Z,35.10
2023-01-11T16:07:40.682Z,35.30
2023-01-11T16:10:33.570Z,34.30
2023-01-11T16:13:13.892Z,39.10
2023-01-11T16:16:08.502Z,34.10
2023-01-11T16:18:45.129Z,35.40
2023-01-11T16:21:30.880Z,34.50
2023-01-11T16:23:59.660Z,34.50
2023-01-11T16:26:28.030Z,37.20
2023-01-11T16:28:59.532Z,32.00
2023-01-11T16:31:55.730Z,34.20
2023-01-11T16:34:25.667Z,33.80
2023-01-11T16:36:53.819Z,38.40
2023-01-11T16:39:25.691Z,33.40
2023-01-11T16:42:00.722Z,41.20
2023-01-11T16:44:53.058Z,36.00
2023-01-11T16:47:22.278Z,38.20
2023-01-11T16:50:17.701Z,39.50
2023-01-11T16:52:48.994Z,35.20
2023-01-11T16:55:21.234Z,35.70
2023-01-11T16:57:56.784Z,37.30
2023-01-11T17:00:32.609Z,40.50
2023-01-11T17:03:23.845Z,36.30
2023-01-11T17:06:21.556Z,35.60
2023-01-11T17:08:52.771Z,38.80
2023-01-11T17:11:37.384Z,34.30
2023-01-11T17:14:20.258Z,35.50
2023-01-11T17:16:51.885Z,37.30
2023-01-11T17:19:24.237Z,35.30
2023-01-11T17:21:58.315Z,36.50
2023-01-11T17:24:27.446Z,36.60
2023-01-11T17:26:59.508Z,36.40
2023-01-11T17:29:30.688Z,34.90
2023-01-11T17:32:03.047Z,28.40
2023-01-11T17:34:31.696Z,33.00
2023-01-11T17:37:01.805Z,30.60
2023-01-11T17:39:33.610Z,30.70
2023-01-11T17:42:23.316Z,29.90
2023-01-11T17:45:12.509Z,27.80
2023-01-11T17:47:43.289Z,33.30
2023-01-11T17:50:26.344Z,30.10
2023-01-11T17:53:05.304Z,31.70
2023-01-11T17:55:34.062Z,32.40
2023-01-11T17:58:35.001Z,34.10
2023-01-11T18:01:13.955Z,29.80
2023-01-11T18:03:53.130Z,30.10
2023-01-11T18:06:21.370Z,31.50
2023-01-11T18:08:53.303Z,28.10
2023-01-11T18:11:25.537Z,29.90
2023-01-11T18:13:57.111Z,29.10
2023-01-11T18:16:27.182Z,30.50
2023-01-11T18:18:56.305Z,29.60
2023-01-11T18:22:00.560Z,31.20
2023-01-11T18:24:33.932Z,28.10
2023-01-11T18:27:13.394Z,26.50
2023-01-11T18:29:42.484Z,28.10
2023-01-11T18:32:12.939Z,26.50
2023-01-11T18:34:41.762Z,27.80
2023-01-11T18:37:11.205Z,30.40
2023-01-11T18:39:40.509Z,27.30
2023-01-11T18:42:14.862Z,29.90
2023-01-11T18:44:46.004Z,28.70
2023-01-11T18:47:24.162Z,25.10
2023-01-11T18:49:53.469Z,29.50
2023-01-11T18:52:24.971Z,28.40
2023-01-11T18:54:54.749Z,31.80
2023-01-11T18:57:24.047Z,28.70
2023-01-11T18:59:52.699Z,29.50
2023-01-11T19:02:42.250Z,29.10
2023-01-11T19:05:14.654Z,30.80
2023-01-11T19:07:44.068Z,30.60
2023-01-11T19:10:18.087Z,27.60
2023-01-11T19:12:46.997Z,25.70
2023-01-11T19:15:16.653Z,31.20
2023-01-11T19:17:45.166Z,28.20
2023-01-11T19:20:14.311Z,29.20
2023-01-11T19:22:42.582Z,25.30
2023-01-11T19:25:10.855Z,26.90
2023-01-11T19:27:39.061Z,28.00
2023-01-11T19:30:08.477Z,27.60
2023-01-11T19:32:37.695Z,28.70
2023-01-11T19:35:08.224Z,32.70
2023-01-11T19:37:37.814Z,29.40
2023-01-11T19:40:06.743Z,29.20
2023-01-11T19:42:34.935Z,31.10
2023-01-11T19:45:03.803Z,27.70
2023-01-11T19:47:32.143Z,29.70
2023-01-11T19:50:01.217Z,27.60
2023-01-11T19:52:29.555Z,28.50
2023-01-11T19:54:57.663Z,32.80
2023-01-11T19:57:25.908Z,30.40
2023-01-11T19:59:54.195Z,29.80
2023-01-11T20:02:22.520Z,29.70
2023-01-11T20:04:51.039Z,30.90
2023-01-11T20:07:20.555Z,34.20
2023-01-11T20:09:48.735Z,31.60
2023-01-11T20:12:16.926Z,31.60
2023-01-11T20:14:46.381Z,32.70
2023-01-11T20:17:19.264Z,35.90
2023-01-11T20:19:54.552Z,31.80
2023-01-11T20:22:24.247Z,31.90
2023-01-11T20:24:52.599Z,31.40
2023-01-11T20:27:20.752Z,32.30
2023-01-11T20:29:48.934Z,35.50
2023-01-11T20:32:39.222Z,32.40
2023-01-11T20:35:05.786Z,37.20
2023-01-11T20:37:33.871Z,31.60
2023-01-11T20:40:02.126Z,32.40
2023-01-11T20:42:31.232Z,33.60
2023-01-11T20:44:59.411Z,35.80
2023-01-11T20:47:27.585Z,35.20
2023-01-11T20:49:55.773Z,33.00
2023-01-11T20:52:24.046Z,36.80
2023-01-11T20:54:52.185Z,32.30
2023-01-11T20:57:20.284Z,33.40
2023-01-11T20:59:48.517Z,33.90
2023-01-11T21:02:18.255Z,37.10
2023-01-11T21:04:46.444Z,37.80
2023-01-11T21:07:14.593Z,40.90
2023-01-11T21:09:42.724Z,35.30
2023-01-11T21:12:10.938Z,37.00
2023-01-11T21:14:39.203Z,37.60
2023-01-11T21:17:07.682Z,42.60
2023-01-11T21:19:35.987Z,43.50
2023-01-11T21:22:05.993Z,38.40
2023-01-11T21:24:34.288Z,34.90
2023-01-11T21:27:03.572Z,41.60
2023-01-11T21:29:32.181Z,37.80
2023-01-11T21:32:00.700Z,33.90
2023-01-11T21:34:29.128Z,38.60
2023-01-11T21:36:57.429Z,37.30
2023-01-11T21:39:26.876Z,38.00
2023-01-11T21:41:55.819Z,35.90
2023-01-11T21:44:32.206Z,37.70
2023-01-11T21:47:06.175Z,38.20
2023-01-11T21:49:34.615Z,36.20
2023-01-11T21:52:02.837Z,36.40
2023-01-11T21:54:31.084Z,33.80
2023-01-11T21:56:59.233Z,35.40
2023-01-11T21:59:27.597Z,37.00
2023-01-11T22:01:55.732Z,38.90
2023-01-11T22:04:24.321Z,40.30
2023-01-11T22:06:55.210Z,34.20
2023-01-11T22:09:27.075Z,33.40
2023-01-11T22:11:58.576Z,39.30
2023-01-11T22:14:26.977Z,33.40
2023-01-11T22:16:55.127Z,34.40
2023-01-11T22:19:23.330Z,34.80
2023-01-11T22:21:51.704Z,37.70
2023-01-11T22:24:20.937Z,35.30
2023-01-11T22:26:49.201Z,34.30
2023-01-11T22:29:17.488Z,33.90
2023-01-11T22:31:52.642Z,33.40
2023-01-11T22:34:22.057Z,31.50
2023-01-11T22:36:50.384Z,32.10
2023-01-11T22:39:19.755Z,32.40
2023-01-11T22:41:49.097Z,33.40
2023-01-11T22:44:17.968Z,32.50
2023-01-11T22:46:46.337Z,31.50
2023-01-11T22:49:15.105Z,32.80
2023-01-11T22:51:44.407Z,32.60
2023-01-11T22:54:12.958Z,31.50
2023-01-11T22:56:41.286Z,30.90
2023-01-11T22:59:10.845Z,34.50
2023-01-11T23:01:41.295Z,34.10
2023-01-11T23:04:14.129Z,32.70
2023-01-11T23:06:43.347Z,31.50
2023-01-11T23:09:17.365Z,34.10
2023-01-11T23:12:04.187Z,32.00
2023-01-11T23:14:33.380Z,32.30
2023-01-11T23:17:09.401Z,31.60
2023-01-11T23:19:40.733Z,32.10
2023-01-11T23:22:11.157Z,34.70
2023-01-11T23:24:41.181Z,33.90
2023-01-11T23:27:09.564Z,31.20
2023-01-11T23:29:37.799Z,32.80
2023-01-11T23:32:06.269Z,32.50
2023-01-11T23:34:34.538Z,31.30
2023-01-11T23:37:02.934Z,28.50
2023-01-11T23:39:32.949Z,29.40
2023-01-11T23:42:20.489Z,27.70
2023-01-11T23:44:48.719Z,28.20
2023-01-11T23:47:23.903Z,30.00
2023-01-11T23:49:54.855Z,30.50
2023-01-11T23:52:25.510Z,30.50
2023-01-11T23:54:54.216Z,30.30
2023-01-11T23:57:23.810Z,30.20
2023-01-11T23:59:52.252Z,28.00
